createdAt,value
2018-09-09T00:01:39.733Z,101822.83
2018-09-09T00:04:08.315Z,101823.67
2018-09-09T00:06:36.893Z,101819.77
2018-09-09T00:09:06.639Z,101828.32
2018-09-09T00:11:35.212Z,101820.34
2018-09-09T00:14:03.811Z,101822.68
2018-09-09T00:16:32.388Z,101825.12
2018-09-09T00:19:00.934Z,101824.21
2018-09-09T00:21:29.506Z,101824.81
2018-09-09T00:23:58.074Z,101821.41
2018-09-09T00:26:26.664Z,101824.04
2018-09-09T00:28:55.242Z,101826.25
2018-09-09T00:31:23.822Z,101822.14
2018-09-09T00:33:52.395Z,101822.21
2018-09-09T00:36:20.977Z,101816.45
2018-09-09T00:38:49.562Z,101817.71
2018-09-09T00:41:18.133Z,101820.10
2018-09-09T00:43:46.706Z,101817.25
2018-09-09T00:46:15.294Z,101812.33
2018-09-09T00:48:43.850Z,101812.92
2018-09-09T00:51:17.613Z,101805.47
2018-09-09T00:53:48.047Z,101800.91
2018-09-09T00:56:17.611Z,101787.09
2018-09-09T00:58:46.176Z,101787.47
2018-09-09T01:01:15.661Z,101793.66
2018-09-09T01:03:45.128Z,101795.76
2018-09-09T01:06:13.715Z,101798.18
2018-09-09T01:08:42.307Z,101793.19
2018-09-09T01:11:11.470Z,101791.19
2018-09-09T01:13:40.021Z,101788.30
2018-09-09T01:16:08.859Z,101778.92
2018-09-09T01:18:37.470Z,101776.70
2018-09-09T01:21:06.097Z,101784.51
2018-09-09T01:23:34.650Z,101781.38
2018-09-09T01:26:03.226Z,101788.06
2018-09-09T01:28:31.813Z,101793.02
2018-09-09T01:31:00.418Z,101792.03
2018-09-09T01:33:28.975Z,101798.21
2018-09-09T01:35:57.552Z,101799.27
2018-09-09T01:38:26.109Z,101798.42
2018-09-09T01:40:54.702Z,101797.58
2018-09-09T01:43:23.261Z,101794.84
2018-09-09T01:45:51.861Z,101791.72
2018-09-09T01:48:20.407Z,101793.02
2018-09-09T01:50:48.989Z,101791.65
2018-09-09T01:53:17.561Z,101788.77
2018-09-09T01:55:46.168Z,101781.84
2018-09-09T01:58:14.737Z,101783.13
2018-09-09T02:00:43.352Z,101779.28
2018-09-09T02:03:11.945Z,101777.98
2018-09-09T02:05:40.508Z,101782.61
2018-09-09T02:08:09.096Z,101782.09
2018-09-09T02:10:37.679Z,101782.73
2018-09-09T02:13:06.262Z,101788.88
2018-09-09T02:15:34.839Z,101782.03
2018-09-09T02:18:03.421Z,101781.24
2018-09-09T02:20:31.989Z,101775.47
2018-09-09T02:23:00.556Z,101770.38
2018-09-09T02:25:29.124Z,101766.16
2018-09-09T02:27:57.745Z,101766.33
2018-09-09T02:30:26.344Z,101765.69
2018-09-09T02:32:54.935Z,101775.92
2018-09-09T02:35:23.509Z,101773.32
2018-09-09T02:37:52.095Z,101769.53
2018-09-09T02:40:20.668Z,101770.38
2018-09-09T02:42:49.258Z,101770.38
2018-09-09T02:45:17.822Z,101777.11
2018-09-09T02:47:46.397Z,101775.22
2018-09-09T02:50:14.958Z,101775.07
2018-09-09T02:52:43.570Z,101782.56
2018-09-09T02:55:12.171Z,101784.05
2018-09-09T02:57:40.770Z,101787.54
2018-09-09T03:00:09.346Z,101781.30
2018-09-09T03:02:37.942Z,101781.38
2018-09-09T03:05:06.697Z,101784.69
2018-09-09T03:07:35.316Z,101779.59
2018-09-09T03:10:03.901Z,101784.89
2018-09-09T03:12:32.496Z,101777.84
2018-09-09T03:15:01.049Z,101784.16
2018-09-09T03:17:29.653Z,101782.47
2018-09-09T03:19:58.259Z,101784.89
2018-09-09T03:22:26.902Z,101780.78
2018-09-09T03:24:55.493Z,101786.90
2018-09-09T03:27:24.106Z,101783.99
2018-09-09T03:29:52.669Z,101786.00
2018-09-09T03:32:21.280Z,101787.38
2018-09-09T03:34:49.861Z,101783.64
2018-09-09T03:37:18.453Z,101777.69
2018-09-09T03:39:47.027Z,101775.01
2018-09-09T03:42:15.620Z,101772.70
2018-09-09T03:44:44.187Z,101773.22
2018-09-09T03:47:12.766Z,101775.27
2018-09-09T03:49:41.359Z,101774.02
2018-09-09T03:52:09.962Z,101771.42
2018-09-09T03:54:38.529Z,101762.52
2018-09-09T03:57:07.122Z,101762.00
2018-09-09T03:59:35.763Z,101761.33
2018-09-09T04:02:04.391Z,101764.41
2018-09-09T04:04:33.014Z,101764.41
2018-09-09T04:07:01.570Z,101771.26
2018-09-09T04:09:30.170Z,101771.95
2018-09-09T04:11:58.748Z,101774.73
2018-09-09T04:14:27.355Z,101777.70
2018-09-09T04:16:55.944Z,101780.31
2018-09-09T04:19:24.549Z,101791.95
2018-09-09T04:21:53.491Z,101782.74
2018-09-09T04:24:23.334Z,101778.21
2018-09-09T04:26:51.926Z,101779.99
2018-09-09T04:29:20.506Z,101783.98
2018-09-09T04:31:49.089Z,101779.09
2018-09-09T04:34:17.680Z,101777.23
2018-09-09T04:36:46.254Z,101779.49
2018-09-09T04:39:15.156Z,101781.10
2018-09-09T04:41:43.751Z,101790.00
2018-09-09T04:44:13.587Z,101793.41
2018-09-09T04:46:42.195Z,101786.22
2018-09-09T04:49:11.001Z,101790.67
2018-09-09T04:51:39.796Z,101794.78
2018-09-09T04:54:08.415Z,101795.79
2018-09-09T04:56:37.008Z,101804.36
2018-09-09T04:59:05.704Z,101803.88
2018-09-09T05:01:34.302Z,101801.86
2018-09-09T05:04:02.915Z,101805.76
2018-09-09T05:06:31.498Z,101802.86
2018-09-09T05:09:00.109Z,101811.19
2018-09-09T05:11:28.693Z,101810.50
2018-09-09T05:13:57.277Z,101805.03
2018-09-09T05:16:25.849Z,101807.93
2018-09-09T05:18:54.461Z,101806.00
2018-09-09T05:21:23.046Z,101808.12
2018-09-09T05:23:51.649Z,101814.39
2018-09-09T05:26:20.233Z,101821.78
2018-09-09T05:28:48.821Z,101820.95
2018-09-09T05:31:17.459Z,101819.22
2018-09-09T05:33:46.056Z,101828.11
2018-09-09T05:36:14.630Z,101827.02
2018-09-09T05:38:43.228Z,101827.64
2018-09-09T05:41:11.804Z,101828.73
2018-09-09T05:43:40.391Z,101830.45
2018-09-09T05:46:08.956Z,101840.64
2018-09-09T05:48:37.553Z,101832.87
2018-09-09T05:51:07.042Z,101833.61
2018-09-09T05:53:35.624Z,101839.50
2018-09-09T05:56:04.196Z,101841.27
2018-09-09T05:58:32.788Z,101836.17
2018-09-09T06:01:01.471Z,101840.87
2018-09-09T06:03:30.075Z,101844.00
2018-09-09T06:05:58.664Z,101844.92
2018-09-09T06:08:27.266Z,101844.40
2018-09-09T06:10:56.209Z,101845.39
2018-09-09T06:13:26.151Z,101843.84
2018-09-09T06:15:54.770Z,101842.25
2018-09-09T06:18:23.337Z,101840.17
2018-09-09T06:20:51.940Z,101842.55
2018-09-09T06:23:20.520Z,101847.86
2018-09-09T06:25:49.113Z,101844.93
2018-09-09T06:28:17.758Z,101843.37
2018-09-09T06:30:46.312Z,101850.39
2018-09-09T06:33:14.875Z,101844.98
2018-09-09T06:35:43.465Z,101851.56
2018-09-09T06:38:12.077Z,101857.17
2018-09-09T06:40:40.668Z,101850.83
2018-09-09T06:43:09.339Z,101852.45
2018-09-09T06:45:37.961Z,101856.03
2018-09-09T06:48:06.546Z,101853.39
2018-09-09T06:50:35.133Z,101851.61
2018-09-09T06:53:03.710Z,101853.00
2018-09-09T06:55:32.352Z,101852.67
2018-09-09T06:58:00.929Z,101857.99
2018-09-09T07:00:29.543Z,101859.45
2018-09-09T07:02:58.115Z,101862.95
2018-09-09T07:05:26.704Z,101862.83
2018-09-09T07:07:55.313Z,101864.97
2018-09-09T07:10:23.904Z,101867.41
2018-09-09T07:12:52.488Z,101870.95
2018-09-09T07:15:21.107Z,101867.11
2018-09-09T07:17:49.681Z,101869.72
2018-09-09T07:20:18.273Z,101869.81
2018-09-09T07:22:46.893Z,101869.98
2018-09-09T07:25:15.466Z,101874.00
2018-09-09T07:27:44.049Z,101873.16
2018-09-09T07:30:12.640Z,101869.12
2018-09-09T07:32:41.214Z,101879.19
2018-09-09T07:35:09.813Z,101875.47
2018-09-09T07:37:38.384Z,101878.70
2018-09-09T07:40:06.983Z,101876.69
2018-09-09T07:42:35.575Z,101874.81
2018-09-09T07:45:04.211Z,101879.80
2018-09-09T07:47:32.830Z,101870.34
2018-09-09T07:50:01.448Z,101873.27
2018-09-09T07:52:30.033Z,101872.79
2018-09-09T07:54:58.627Z,101872.14
2018-09-09T07:57:27.228Z,101879.94
2018-09-09T07:59:55.812Z,101877.58
2018-09-09T08:02:24.382Z,101880.59
2018-09-09T08:04:53.014Z,101881.48
2018-09-09T08:07:21.603Z,101885.29
2018-09-09T08:09:50.229Z,101885.63
2018-09-09T08:12:18.794Z,101882.75
2018-09-09T08:14:47.362Z,101887.92
2018-09-09T08:17:15.981Z,101896.53
2018-09-09T08:19:44.555Z,101885.88
2018-09-09T08:22:13.158Z,101888.33
2018-09-09T08:24:41.727Z,101894.05
2018-09-09T08:27:10.319Z,101893.28
2018-09-09T08:29:38.971Z,101892.36
2018-09-09T08:32:07.558Z,101898.87
2018-09-09T08:34:36.285Z,101898.19
2018-09-09T08:37:05.091Z,101897.55
2018-09-09T08:39:33.686Z,101899.06
2018-09-09T08:42:02.295Z,101891.66
2018-09-09T08:44:30.873Z,101893.34
2018-09-09T08:46:59.474Z,101887.36
2018-09-09T08:49:28.061Z,101893.52
2018-09-09T08:51:56.784Z,101891.48
2018-09-09T08:54:25.265Z,101887.70
2018-09-09T08:56:53.874Z,101887.34
2018-09-09T08:59:22.503Z,101889.86
2018-09-09T09:01:51.090Z,101884.23
2018-09-09T09:04:19.653Z,101886.36
2018-09-09T09:06:48.259Z,101884.58
2018-09-09T09:09:16.855Z,101884.13
2018-09-09T09:11:45.458Z,101883.73
2018-09-09T09:14:14.048Z,101879.02
2018-09-09T09:16:42.660Z,101883.90
2018-09-09T09:19:11.232Z,101888.02
2018-09-09T09:21:39.832Z,101887.47
2018-09-09T09:24:08.397Z,101887.34
2018-09-09T09:26:36.992Z,101878.70
2018-09-09T09:29:05.618Z,101883.31
2018-09-09T09:31:34.221Z,101882.45
2018-09-09T09:34:02.806Z,101871.05
2018-09-09T09:36:31.395Z,101874.75
2018-09-09T09:38:59.966Z,101869.94
2018-09-09T09:41:28.558Z,101866.63
2018-09-09T09:43:57.141Z,101859.84
2018-09-09T09:46:25.754Z,101860.74
2018-09-09T09:48:54.325Z,101861.30
2018-09-09T09:51:22.926Z,101856.84
2018-09-09T09:53:51.500Z,101854.42
2018-09-09T09:56:20.107Z,101859.70
2018-09-09T09:58:48.684Z,101854.61
2018-09-09T10:01:17.280Z,101853.83
2018-09-09T10:03:45.869Z,101858.41
2018-09-09T10:06:14.512Z,101853.73
2018-09-09T10:08:43.096Z,101853.35
2018-09-09T10:11:11.678Z,101848.34
2018-09-09T10:13:40.273Z,101848.27
2018-09-09T10:16:08.855Z,101854.79
2018-09-09T10:18:37.453Z,101846.09
2018-09-09T10:21:06.040Z,101846.63
2018-09-09T10:23:34.620Z,101848.51
2018-09-09T10:26:03.199Z,101843.33
2018-09-09T10:28:31.790Z,101844.30
2018-09-09T10:31:00.367Z,101843.09
2018-09-09T10:33:28.949Z,101843.77
2018-09-09T10:35:57.521Z,101844.62
2018-09-09T10:38:26.108Z,101846.61
2018-09-09T10:40:54.697Z,101837.81
2018-09-09T10:43:23.299Z,101844.11
2018-09-09T10:45:51.862Z,101844.28
2018-09-09T10:48:20.455Z,101843.44
2018-09-09T10:50:49.023Z,101844.25
2018-09-09T10:53:17.671Z,101840.55
2018-09-09T10:55:46.236Z,101841.59
2018-09-09T10:58:14.829Z,101850.19
2018-09-09T11:00:43.399Z,101847.13
2018-09-09T11:03:11.986Z,101848.46
2018-09-09T11:05:40.798Z,101844.58
2018-09-09T11:08:13.809Z,101842.53
2018-09-09T11:10:42.397Z,101842.08
2018-09-09T11:13:11.012Z,101848.28
2018-09-09T11:15:39.622Z,101840.16
2018-09-09T11:18:08.318Z,101843.48
2018-09-09T11:20:36.887Z,101841.91
2018-09-09T11:23:05.481Z,101839.59
2018-09-09T11:25:34.048Z,101833.47
2018-09-09T11:28:02.645Z,101836.38
2018-09-09T11:30:31.281Z,101839.31
2018-09-09T11:32:59.863Z,101839.71
2018-09-09T11:35:28.630Z,101836.14
2018-09-09T11:37:57.565Z,101837.84
2018-09-09T11:40:26.651Z,101830.09
2018-09-09T11:42:55.323Z,101838.00
2018-09-09T11:45:23.913Z,101836.89
2018-09-09T11:47:52.560Z,101835.88
2018-09-09T11:50:21.145Z,101824.00
2018-09-09T11:52:49.727Z,101826.78
2018-09-09T11:55:18.304Z,101832.23
2018-09-09T11:57:46.932Z,101834.69
2018-09-09T12:00:15.518Z,101833.16
2018-09-09T12:02:44.154Z,101836.54
2018-09-09T12:05:12.706Z,101842.19
2018-09-09T12:07:41.292Z,101838.10
2018-09-09T12:10:09.859Z,101833.05
2018-09-09T12:12:38.456Z,101833.51
2018-09-09T12:15:07.067Z,101835.22
2018-09-09T12:17:35.629Z,101835.70
2018-09-09T12:20:04.262Z,101832.57
2018-09-09T12:22:32.823Z,101826.47
2018-09-09T12:25:01.410Z,101826.54
2018-09-09T12:27:30.009Z,101826.67
2018-09-09T12:29:58.629Z,101817.13
2018-09-09T12:32:27.208Z,101819.14
2018-09-09T12:34:55.788Z,101824.89
2018-09-09T12:37:24.356Z,101828.70
2018-09-09T12:39:52.950Z,101821.80
2018-09-09T12:42:22.313Z,101825.41
2018-09-09T12:44:56.141Z,101828.25
2018-09-09T12:47:30.131Z,101822.36
2018-09-09T12:49:58.711Z,101817.03
2018-09-09T12:52:27.290Z,101817.77
2018-09-09T12:54:55.924Z,101828.14
2018-09-09T12:57:24.469Z,101820.59
2018-09-09T12:59:53.118Z,101820.00
2018-09-09T13:02:21.693Z,101823.63
2018-09-09T13:04:50.262Z,101820.05
2018-09-09T13:07:18.868Z,101826.42
2018-09-09T13:09:47.461Z,101827.02
2018-09-09T13:12:16.059Z,101828.04
2018-09-09T13:14:44.660Z,101824.03
2018-09-09T13:17:13.220Z,101819.78
2018-09-09T13:19:41.809Z,101808.27
2018-09-09T13:22:10.425Z,101804.27
2018-09-09T13:24:39.027Z,101804.08
2018-09-09T13:27:07.635Z,101809.22
2018-09-09T13:29:36.208Z,101820.75
2018-09-09T13:32:04.789Z,101823.83
2018-09-09T13:34:33.361Z,101821.36
2018-09-09T13:37:01.917Z,101821.17
2018-09-09T13:39:30.518Z,101817.86
2018-09-09T13:41:59.078Z,101822.66
2018-09-09T13:44:27.665Z,101819.87
2018-09-09T13:46:56.229Z,101824.05
2018-09-09T13:49:24.825Z,101819.86
2018-09-09T13:51:53.376Z,101820.64
2018-09-09T13:54:21.960Z,101823.37
2018-09-09T13:56:50.533Z,101823.94
2018-09-09T13:59:19.107Z,101820.05
2018-09-09T14:01:47.660Z,101815.24
2018-09-09T14:04:16.236Z,101812.20
2018-09-09T14:06:44.801Z,101819.24
2018-09-09T14:09:13.378Z,101815.33
2018-09-09T14:11:41.974Z,101815.30
2018-09-09T14:14:10.521Z,101818.05
2018-09-09T14:16:39.094Z,101810.75
2018-09-09T14:19:07.654Z,101812.44
2018-09-09T14:21:36.231Z,101808.80
2018-09-09T14:24:04.804Z,101809.63
2018-09-09T14:26:33.386Z,101810.75
2018-09-09T14:29:01.959Z,101817.36
2018-09-09T14:31:30.536Z,101812.31
2018-09-09T14:33:59.094Z,101812.39
2018-09-09T14:36:27.663Z,101816.06
2018-09-09T14:38:56.204Z,101816.37
2018-09-09T14:41:24.781Z,101818.05
2018-09-09T14:43:53.368Z,101814.42
2018-09-09T14:46:21.957Z,101818.84
2018-09-09T14:48:50.520Z,101820.23
2018-09-09T14:51:19.097Z,101823.95
2018-09-09T14:53:47.664Z,101811.67
2018-09-09T14:56:16.256Z,101819.72
2018-09-09T14:58:44.825Z,101823.66
2018-09-09T15:01:13.443Z,101813.36
2018-09-09T15:03:42.018Z,101814.52
2018-09-09T15:06:10.581Z,101815.10
2018-09-09T15:08:39.154Z,101813.72
2018-09-09T15:11:07.740Z,101814.56
2018-09-09T15:13:36.289Z,101814.52
2018-09-09T15:16:04.867Z,101811.65
2018-09-09T15:18:33.467Z,101811.52
2018-09-09T15:21:02.035Z,101812.89
2018-09-09T15:23:30.619Z,101820.09
2018-09-09T15:25:59.153Z,101817.93
2018-09-09T15:28:27.773Z,101821.07
2018-09-09T15:30:56.330Z,101814.80
2018-09-09T15:33:24.916Z,101812.73
2018-09-09T15:35:53.488Z,101813.81
2018-09-09T15:38:22.071Z,101807.64
2018-09-09T15:40:50.740Z,101809.31
2018-09-09T15:43:19.337Z,101806.17
2018-09-09T15:45:47.884Z,101806.08
2018-09-09T15:48:16.614Z,101811.20
2018-09-09T15:50:45.220Z,101808.75
2018-09-09T15:53:13.825Z,101805.85
2018-09-09T15:55:42.389Z,101801.03
2018-09-09T15:58:11.030Z,101801.18
2018-09-09T16:00:39.601Z,101802.47
2018-09-09T16:03:08.190Z,101797.85
2018-09-09T16:05:36.732Z,101799.92
2018-09-09T16:08:05.356Z,101799.65
2018-09-09T16:10:33.908Z,101809.97
2018-09-09T16:13:02.494Z,101812.48
2018-09-09T16:15:31.041Z,101811.89
2018-09-09T16:17:59.852Z,101811.52
2018-09-09T16:20:31.370Z,101811.32
2018-09-09T16:23:00.133Z,101815.31
2018-09-09T16:25:29.098Z,101808.72
2018-09-09T16:27:57.705Z,101806.56
2018-09-09T16:30:26.297Z,101804.63
2018-09-09T16:32:54.885Z,101804.73
2018-09-09T16:35:23.454Z,101809.21
2018-09-09T16:37:52.022Z,101811.18
2018-09-09T16:40:20.613Z,101814.53
2018-09-09T16:42:49.327Z,101819.03
2018-09-09T16:45:17.952Z,101817.97
2018-09-09T16:47:46.535Z,101825.56
2018-09-09T16:50:15.138Z,101815.05
2018-09-09T16:52:43.781Z,101818.16
2018-09-09T16:55:12.354Z,101826.56
2018-09-09T16:57:40.954Z,101830.53
2018-09-09T17:00:09.580Z,101833.55
2018-09-09T17:02:38.173Z,101840.19
2018-09-09T17:05:06.892Z,101841.62
2018-09-09T17:07:35.489Z,101840.20
2018-09-09T17:10:04.105Z,101841.36
2018-09-09T17:12:32.689Z,101840.64
2018-09-09T17:15:01.333Z,101846.02
2018-09-09T17:17:29.927Z,101842.30
2018-09-09T17:19:58.557Z,101838.01
2018-09-09T17:22:27.121Z,101838.96
2018-09-09T17:24:55.739Z,101842.62
2018-09-09T17:27:24.360Z,101840.44
2018-09-09T17:29:52.982Z,101838.28
2018-09-09T17:32:21.563Z,101841.63
2018-09-09T17:34:50.206Z,101843.22
2018-09-09T17:37:18.794Z,101847.53
2018-09-09T17:39:47.390Z,101845.30
2018-09-09T17:42:15.959Z,101850.84
2018-09-09T17:44:44.563Z,101843.88
2018-09-09T17:47:13.162Z,101845.80
2018-09-09T17:49:41.757Z,101845.75
2018-09-09T17:52:10.317Z,101852.36
2018-09-09T17:54:38.926Z,101850.15
2018-09-09T17:57:07.512Z,101852.59
2018-09-09T17:59:36.085Z,101854.59
2018-09-09T18:02:04.749Z,101855.88
2018-09-09T18:04:33.368Z,101851.68
2018-09-09T18:07:01.969Z,101859.34
2018-09-09T18:09:30.548Z,101858.41
2018-09-09T18:11:59.166Z,101859.16
2018-09-09T18:14:27.741Z,101858.83
2018-09-09T18:16:56.342Z,101864.36
2018-09-09T18:19:24.941Z,101868.80
2018-09-09T18:21:53.534Z,101864.51
2018-09-09T18:24:22.107Z,101867.03
2018-09-09T18:26:50.700Z,101866.78
2018-09-09T18:29:19.334Z,101866.20
2018-09-09T18:31:47.959Z,101871.17
2018-09-09T18:34:16.544Z,101863.91
2018-09-09T18:36:45.830Z,101865.71
2018-09-09T18:39:14.405Z,101863.09
2018-09-09T18:41:43.022Z,101868.69
2018-09-09T18:44:11.619Z,101872.88
2018-09-09T18:46:40.218Z,101864.34
2018-09-09T18:49:08.817Z,101869.27
2018-09-09T18:51:37.414Z,101866.97
2018-09-09T18:54:05.986Z,101865.17
2018-09-09T18:56:34.584Z,101866.67
2018-09-09T18:59:03.282Z,101868.30
2018-09-09T19:01:31.837Z,101869.16
2018-09-09T19:04:00.401Z,101865.37
2018-09-09T19:06:28.998Z,101873.22
2018-09-09T19:08:57.599Z,101872.16
2018-09-09T19:11:26.188Z,101869.84
2018-09-09T19:13:54.802Z,101872.59
2018-09-09T19:16:23.399Z,101872.38
2018-09-09T19:18:51.968Z,101867.29
2018-09-09T19:21:20.579Z,101869.61
2018-09-09T19:23:49.219Z,101871.75
2018-09-09T19:26:17.789Z,101876.40
2018-09-09T19:28:46.457Z,101874.59
2018-09-09T19:31:14.998Z,101867.39
2018-09-09T19:33:43.570Z,101872.88
2018-09-09T19:36:12.149Z,101863.33
2018-09-09T19:38:40.727Z,101864.78
2018-09-09T19:41:09.292Z,101865.95
2018-09-09T19:43:37.862Z,101864.55
2018-09-09T19:46:06.453Z,101867.70
2018-09-09T19:48:35.073Z,101868.95
2018-09-09T19:51:03.698Z,101872.23
2018-09-09T19:53:32.301Z,101866.11
2018-09-09T19:56:00.891Z,101871.73
2018-09-09T19:58:29.499Z,101866.61
2018-09-09T20:00:58.067Z,101865.73
2018-09-09T20:03:26.656Z,101863.08
2018-09-09T20:05:55.211Z,101867.73
2018-09-09T20:08:23.842Z,101871.45
2018-09-09T20:10:52.409Z,101867.95
2018-09-09T20:13:20.989Z,101865.08
2018-09-09T20:15:49.601Z,101857.14
2018-09-09T20:18:18.134Z,101862.91
2018-09-09T20:20:46.702Z,101874.20
2018-09-09T20:23:15.319Z,101876.06
2018-09-09T20:25:43.932Z,101879.42
2018-09-09T20:28:12.514Z,101877.26
2018-09-09T20:30:41.766Z,101880.83
2018-09-09T20:33:10.328Z,101882.29
2018-09-09T20:35:38.912Z,101880.78
2018-09-09T20:38:07.481Z,101880.28
2018-09-09T20:40:36.079Z,101877.77
2018-09-09T20:43:04.662Z,101882.89
2018-09-09T20:45:33.254Z,101879.23
2018-09-09T20:48:01.833Z,101880.39
2018-09-09T20:50:30.436Z,101881.37
2018-09-09T20:52:59.001Z,101877.39
2018-09-09T20:55:27.595Z,101879.80
2018-09-09T20:57:56.166Z,101879.48
2018-09-09T21:00:24.818Z,101882.88
2018-09-09T21:02:53.376Z,101884.70
2018-09-09T21:05:21.982Z,101888.30
2018-09-09T21:07:50.555Z,101885.16
2018-09-09T21:10:19.175Z,101884.91
2018-09-09T21:12:47.764Z,101880.58
2018-09-09T21:15:16.371Z,101883.53
2018-09-09T21:17:44.937Z,101885.61
2018-09-09T21:20:13.509Z,101878.95
2018-09-09T21:22:42.115Z,101873.57
2018-09-09T21:25:10.700Z,101879.45
2018-09-09T21:27:39.346Z,101885.16
2018-09-09T21:30:07.934Z,101879.89
2018-09-09T21:32:36.521Z,101881.26
2018-09-09T21:35:05.131Z,101879.95
2018-09-09T21:37:33.698Z,101879.02
2018-09-09T21:40:02.245Z,101876.24
2018-09-09T21:42:30.821Z,101877.05
2018-09-09T21:44:59.374Z,101877.69
2018-09-09T21:47:27.980Z,101880.58
2018-09-09T21:49:56.525Z,101878.42
2018-09-09T21:52:25.191Z,101882.38
2018-09-09T21:54:53.768Z,101878.84
2018-09-09T21:57:22.358Z,101879.55
2018-09-09T21:59:50.906Z,101874.64
2018-09-09T22:02:19.494Z,101878.80
2018-09-09T22:04:48.061Z,101872.65
2018-09-09T22:07:16.634Z,101871.95
2018-09-09T22:09:45.664Z,101861.84
2018-09-09T22:12:14.313Z,101861.52
2018-09-09T22:14:43.268Z,101872.06
2018-09-09T22:17:12.205Z,101877.34
2018-09-09T22:19:40.854Z,101873.90
2018-09-09T22:22:09.475Z,101874.17
2018-09-09T22:24:38.028Z,101870.21
2018-09-09T22:27:06.684Z,101866.95
2018-09-09T22:29:35.245Z,101863.59
2018-09-09T22:32:03.820Z,101868.47
2018-09-09T22:34:32.401Z,101870.38
2018-09-09T22:37:00.984Z,101872.28
2018-09-09T22:39:29.546Z,101875.70
2018-09-09T22:41:58.092Z,101876.53
2018-09-09T22:44:26.781Z,101881.17
2018-09-09T22:46:55.332Z,101873.95
2018-09-09T22:49:23.907Z,101864.54
2018-09-09T22:51:52.531Z,101864.92
2018-09-09T22:54:21.121Z,101864.83
2018-09-09T22:56:49.694Z,101862.50
2018-09-09T22:59:18.283Z,101862.50
2018-09-09T23:01:46.859Z,101878.44
2018-09-09T23:04:15.453Z,101864.08
2018-09-09T23:06:44.032Z,101867.01
2018-09-09T23:09:13.482Z,101861.91
2018-09-09T23:11:42.070Z,101855.63
2018-09-09T23:14:10.704Z,101858.26
2018-09-09T23:16:39.278Z,101855.00
2018-09-09T23:19:07.874Z,101859.27
2018-09-09T23:21:36.450Z,101855.78
2018-09-09T23:24:05.060Z,101860.77
2018-09-09T23:26:33.620Z,101858.36
2018-09-09T23:29:02.213Z,101858.77
2018-09-09T23:31:30.789Z,101858.80
2018-09-09T23:33:59.393Z,101860.58
2018-09-09T23:36:28.045Z,101859.45
2018-09-09T23:38:56.612Z,101857.76
2018-09-09T23:41:25.206Z,101858.80
2018-09-09T23:43:53.793Z,101851.48
2018-09-09T23:46:22.398Z,101843.84
2018-09-09T23:48:50.981Z,101845.05
2018-09-09T23:51:19.556Z,101842.99
2018-09-09T23:53:48.142Z,101835.27
2018-09-09T23:56:16.748Z,101832.05
2018-09-09T23:58:45.353Z,101827.99
